Time;durP1;ratioP1;P1;durP2;ratioP2;P2;SDS_P1;SDS_P2;PMS_P1;PMS_P2;Temp;Humidity;BMP_temperature;BMP_pressure;BME280_temperature;BME280_humidity;BME280_pressure;Samples;Min_cycle;Max_cycle;Signal;HPM_P1;HPM_P2
2021/09/26 00:05:03;;;;;;;5.75;1.80;;;18.10;66.50;;;;;;20728438;28;80420;-73
2021/09/26 00:15:16;;;;;;;5.15;1.77;;;18.00;66.90;;;;;;20728148;28;81045;-73
2021/09/26 00:25:19;;;;;;;4.18;1.52;;;18.00;67.20;;;;;;20726908;28;79981;-74
2021/09/26 00:35:21;;;;;;;;;;;17.90;67.60;;;;;;20728302;28;81975;-73
2021/09/26 00:45:23;;;;;;;3.88;1.80;;;17.70;67.90;;;;;;20730937;28;80904;-74
2021/09/26 00:55:25;;;;;;;6.60;2.37;;;17.60;68.70;;;;;;20724932;28;79928;-73
2021/09/26 01:05:29;;;;;;;5.03;2.25;;;17.40;69.50;;;;;;20725388;28;81991;-73
2021/09/26 01:15:46;;;;;;;3.63;1.98;;;17.30;70.40;;;;;;20725854;28;82056;-76
2021/09/26 01:26:00;;;;;;;5.05;2.30;;;17.20;71.30;;;;;;20723826;28;80174;-74
2021/09/26 01:36:20;;;;;;;5.82;2.60;;;17.10;71.80;;;;;;20723423;28;81860;-73
2021/09/26 01:46:35;;;;;;;5.45;2.03;;;17.00;73.00;;;;;;20722684;28;80701;-72
2021/09/26 01:56:56;;;;;;;4.90;2.70;;;16.90;74.30;;;;;;20722212;28;80073;-72
2021/09/26 02:07:13;;;;;;;6.22;2.70;;;16.90;74.70;;;;;;20722900;28;80705;-73
2021/09/26 02:17:37;;;;;;;4.22;2.78;;;16.90;75.50;;;;;;20722333;28;80740;-74
2021/09/26 02:27:46;;;;;;;6.70;2.70;;;16.70;75.90;;;;;;20721506;28;79832;-73
2021/09/26 02:37:56;;;;;;;6.75;2.92;;;16.60;76.00;;;;;;20719103;28;80737;-72
2021/09/26 02:48:11;;;;;;;4.68;2.50;;;16.50;76.30;;;;;;20718425;28;80239;-74
2021/09/26 02:58:23;;;;;;;4.75;3.05;;;16.50;76.60;;;;;;20717614;28;80500;-73
2021/09/26 03:08:37;;;;;;;4.03;2.07;;;16.40;76.60;;;;;;20718312;28;80755;-74
2021/09/26 03:18:48;;;;;;;3.60;1.98;;;16.40;76.70;;;;;;20718746;28;80576;-72
2021/09/26 03:29:09;;;;;;;4.03;2.72;;;16.40;76.80;;;;;;20716992;28;80483;-73
2021/09/26 03:39:30;;;;;;;7.18;2.63;;;16.30;77.10;;;;;;20717875;28;81883;-72
2021/09/26 03:49:52;;;;;;;5.28;2.45;;;16.20;77.80;;;;;;20717145;28;83192;-73
2021/09/26 04:00:12;;;;;;;3.58;2.55;;;16.10;78.10;;;;;;20714643;28;81646;-73
2021/09/26 04:10:19;;;;;;;8.05;3.75;;;16.10;78.30;;;;;;20714527;28;80773;-72
2021/09/26 04:20:25;;;;;;;8.40;3.20;;;16.10;78.40;;;;;;20728673;28;80703;-73
2021/09/26 04:30:42;;;;;;;5.72;3.35;;;16.00;78.50;;;;;;20726849;28;81881;-73
2021/09/26 04:41:02;;;;;;;5.50;3.33;;;16.00;78.70;;;;;;20727445;28;81678;-73
2021/09/26 04:51:24;;;;;;;7.00;3.17;;;15.90;78.80;;;;;;20726354;28;80552;-71
2021/09/26 05:01:33;;;;;;;6.95;3.40;;;15.90;78.90;;;;;;20726161;28;80749;-72
2021/09/26 05:11:52;;;;;;;6.32;3.40;;;15.80;79.10;;;;;;20724639;28;80708;-71
2021/09/26 05:22:06;;;;;;;11.00;4.43;;;15.70;79.30;;;;;;20723894;28;81171;-71
2021/09/26 05:32:17;;;;;;;7.03;4.70;;;15.70;79.80;;;;;;20723011;28;81816;-70
2021/09/26 05:42:31;;;;;;;10.55;5.20;;;15.60;80.20;;;;;;20723553;28;80834;-72
2021/09/26 05:52:44;;;;;;;14.13;5.50;;;15.40;80.30;;;;;;20717667;28;82069;-72
2021/09/26 06:02:55;;;;;;;9.80;5.65;;;15.40;80.40;;;;;;20770645;28;80715;-71
2021/09/26 06:13:07;;;;;;;8.45;5.25;;;15.30;80.50;;;;;;20650738;28;81875;-73
2021/09/26 06:23:20;;;;;;;;;;;15.40;80.60;;;;;;20639296;28;81857;-71
2021/09/26 06:33:32;;;;;;;6.68;3.75;;;15.40;80.70;;;;;;20688974;28;80794;-72
2021/09/26 06:43:40;;;;;;;7.53;3.65;;;15.50;80.50;;;;;;20638149;28;79802;-72
2021/09/26 06:53:52;;;;;;;7.32;3.92;;;15.60;80.10;;;;;;20667836;28;83690;-71
2021/09/26 07:03:57;;;;;;;6.55;3.58;;;15.70;79.70;;;;;;20636690;28;81786;-71
2021/09/26 07:14:02;;;;;;;6.70;4.15;;;15.90;79.10;;;;;;20668091;28;80815;-72
2021/09/26 07:24:16;;;;;;;5.97;4.18;;;16.00;78.50;;;;;;20638654;28;80978;-71
2021/09/26 07:34:25;;;;;;;6.88;3.75;;;16.30;77.90;;;;;;20637217;28;80814;-71
2021/09/26 07:44:32;;;;;;;6.97;3.78;;;16.40;76.90;;;;;;20654004;28;81880;-68
2021/09/26 07:54:39;;;;;;;5.00;3.17;;;16.70;76.00;;;;;;20746794;28;80801;-67
2021/09/26 08:04:43;;;;;;;5.82;4.20;;;17.00;74.80;;;;;;20797023;28;80796;-69
2021/09/26 08:14:50;;;;;;;6.97;3.38;;;17.30;74.00;;;;;;20814616;28;80335;-72
2021/09/26 08:25:00;;;;;;;6.43;3.55;;;17.60;72.70;;;;;;20814876;28;81625;-69
2021/09/26 08:35:06;;;;;;;8.10;3.70;;;18.10;71.90;;;;;;20813614;28;80495;-70
2021/09/26 08:45:16;;;;;;;6.22;2.70;;;18.60;70.30;;;;;;20804983;28;81269;-69
2021/09/26 08:55:22;;;;;;;5.78;3.45;;;19.00;68.40;;;;;;20644411;28;80024;-77
2021/09/26 09:05:39;;;;;;;4.63;3.08;;;19.40;67.30;;;;;;20645113;28;80584;-79
2021/09/26 09:15:52;;;;;;;5.43;2.80;;;19.60;66.30;;;;;;20637036;28;80819;-75
2021/09/26 09:25:58;;;;;;;6.80;2.95;;;20.40;63.40;;;;;;20643913;28;80689;-73
2021/09/26 09:36:01;;;;;;;6.43;1.90;;;22.00;58.80;;;;;;20644867;28;81863;-77
2021/09/26 09:46:04;;;;;;;5.55;1.75;;;23.40;54.40;;;;;;20641823;28;82298;-75
2021/09/26 09:56:10;;;;;;;5.18;2.15;;;24.40;50.40;;;;;;20641709;28;79944;-79
2021/09/26 10:06:27;;;;;;;11.98;2.42;;;26.60;45.60;;;;;;20641996;28;82159;-71
2021/09/26 10:16:31;;;;;;;2.95;1.80;;;28.60;42.40;;;;;;20639841;28;81745;-65
2021/09/26 10:26:38;;;;;;;2.05;1.23;;;29.50;37.00;;;;;;20640801;28;80891;-76
2021/09/26 10:36:44;;;;;;;3.58;1.58;;;31.10;34.60;;;;;;20641568;28;80785;-74
2021/09/26 10:47:10;;;;;;;6.57;1.30;;;33.30;31.00;;;;;;20640781;28;80923;-72
2021/09/26 10:57:14;;;;;;;2.40;1.10;;;35.90;28.50;;;;;;20752069;28;80770;-73
2021/09/26 11:07:32;;;;;;;2.75;1.30;;;38.10;24.10;;;;;;20734239;28;82146;-77
2021/09/26 11:17:52;;;;;;;8.70;1.65;;;38.90;22.90;;;;;;20674585;28;80982;-73
2021/09/26 11:27:55;;;;;;;4.10;1.13;;;39.90;22.80;;;;;;20760262;28;80282;-75
2021/09/26 11:37:59;;;;;;;3.28;1.30;;;41.20;21.30;;;;;;20807332;28;80739;-74
2021/09/26 11:48:04;;;;;;;6.70;1.80;;;41.30;20.90;;;;;;20806538;27;80289;-75
2021/09/26 11:58:10;;;;;;;3.25;1.30;;;43.10;19.90;;;;;;20807475;28;80421;-72
2021/09/26 12:08:13;;;;;;;4.20;1.50;;;44.30;18.50;;;;;;20814887;28;80527;-77
2021/09/26 12:18:24;;;;;;;4.07;1.83;;;37.10;25.10;;;;;;20813440;28;80141;-79
2021/09/26 12:28:27;;;;;;;4.72;1.67;;;34.60;27.60;;;;;;20814958;28;80164;-77
2021/09/26 12:38:39;;;;;;;2.50;1.38;;;35.40;27.40;;;;;;20812566;28;81854;-75
2021/09/26 12:48:43;;;;;;;3.55;1.42;;;32.70;31.00;;;;;;20815304;28;81145;-76
2021/09/26 12:58:52;;;;;;;3.20;1.55;;;32.70;31.00;;;;;;20811704;28;80716;-77
2021/09/26 13:08:55;;;;;;;4.88;1.50;;;32.90;30.00;;;;;;20809748;28;80990;-76
2021/09/26 13:18:58;;;;;;;7.47;3.38;;;35.50;27.40;;;;;;20810023;27;80907;-77
2021/09/26 13:29:28;;;;;;;3.53;1.65;;;34.30;28.20;;;;;;20810305;28;79989;-76
2021/09/26 13:39:46;;;;;;;4.75;2.08;;;33.00;30.50;;;;;;20806473;28;80974;-76
2021/09/26 13:49:51;;;;;;;5.13;2.53;;;33.90;28.70;;;;;;20768247;28;80161;-74
2021/09/26 14:00:05;;;;;;;3.60;1.88;;;37.20;25.00;;;;;;20803437;28;80993;-64
2021/09/26 14:10:07;;;;;;;4.47;1.40;;;35.00;27.20;;;;;;20711533;28;82222;-64
2021/09/26 14:20:12;;;;;;;7.95;1.92;;;39.40;22.80;;;;;;20675702;28;80556;-65
2021/09/26 14:30:14;;;;;;;2.85;1.80;;;44.50;18.80;;;;;;20673759;28;81135;-67
2021/09/26 14:40:17;;;;;;;4.38;2.15;;;44.80;18.70;;;;;;20675609;28;81882;-71
2021/09/26 14:50:19;;;;;;;3.55;1.90;;;38.50;23.60;;;;;;20674021;28;80209;-66
2021/09/26 15:00:21;;;;;;;2.58;1.42;;;38.20;23.30;;;;;;20665099;28;81734;-66
2021/09/26 15:10:23;;;;;;;5.28;2.35;;;39.90;20.90;;;;;;20675471;28;80382;-81
2021/09/26 15:20:29;;;;;;;3.42;1.80;;;35.00;25.40;;;;;;20713319;28;80042;-65
2021/09/26 15:30:31;;;;;;;2.72;1.30;;;37.40;22.80;;;;;;20720176;28;80804;-75
2021/09/26 15:40:42;;;;;;;2.15;1.13;;;40.00;20.40;;;;;;20740235;27;81775;-72
2021/09/26 15:50:45;;;;;;;2.67;1.05;;;41.50;19.30;;;;;;20682693;28;82422;-68
2021/09/26 16:00:49;;;;;;;2.63;1.65;;;42.10;18.80;;;;;;20654351;28;81878;-70
2021/09/26 16:10:54;;;;;;;4.05;1.40;;;35.80;24.00;;;;;;20677556;28;81075;-65
2021/09/26 16:20:59;;;;;;;4.32;1.00;;;34.40;26.30;;;;;;20723108;28;80961;-64
2021/09/26 16:31:03;;;;;;;2.05;1.10;;;32.00;28.70;;;;;;20727208;28;81732;-64
2021/09/26 16:41:08;;;;;;;1.90;1.17;;;29.70;31.80;;;;;;20723288;28;80964;-67
2021/09/26 16:51:14;;;;;;;2.72;1.30;;;29.00;32.50;;;;;;20768011;28;80815;-67
2021/09/26 17:01:16;;;;;;;2.55;1.00;;;27.50;35.00;;;;;;20812600;28;79865;-74
2021/09/26 17:11:19;;;;;;;3.58;1.25;;;26.80;36.10;;;;;;20810924;28;80879;-66
2021/09/26 17:21:23;;;;;;;1.67;1.00;;;26.20;37.20;;;;;;20810123;27;80823;-66
2021/09/26 17:31:25;;;;;;;3.83;1.50;;;25.80;37.70;;;;;;20809023;28;80747;-68
2021/09/26 17:41:31;;;;;;;1.58;0.90;;;25.40;38.60;;;;;;20809666;28;81362;-68
2021/09/26 17:51:33;;;;;;;2.30;1.00;;;25.00;38.80;;;;;;20809704;28;81841;-66
2021/09/26 18:01:35;;;;;;;2.90;1.63;;;24.50;39.90;;;;;;20808598;28;80013;-64
2021/09/26 18:11:37;;;;;;;7.18;2.60;;;24.20;41.30;;;;;;20808228;28;80650;-67
2021/09/26 18:21:39;;;;;;;5.82;2.45;;;24.00;41.60;;;;;;20739843;28;80884;-69
2021/09/26 18:31:40;;;;;;;3.88;1.63;;;23.70;43.00;;;;;;20721871;28;80563;-72
2021/09/26 18:41:46;;;;;;;8.70;2.83;;;23.40;43.30;;;;;;20770724;28;80922;-70
2021/09/26 18:51:47;;;;;;;5.68;2.00;;;23.30;44.20;;;;;;20804702;28;80703;-72
2021/09/26 19:01:49;;;;;;;5.90;2.47;;;23.00;45.00;;;;;;20757778;28;81910;-73
2021/09/26 19:11:52;;;;;;;4.25;1.75;;;22.90;46.20;;;;;;20783576;28;82178;-68
2021/09/26 19:21:55;;;;;;;4.20;2.42;;;22.60;47.30;;;;;;20803338;28;81824;-73
2021/09/26 19:31:57;;;;;;;7.65;2.95;;;22.40;48.30;;;;;;20777009;28;80960;-76
2021/09/26 19:42:00;;;;;;;7.85;3.58;;;22.20;49.10;;;;;;20721511;28;82004;-71
2021/09/26 19:52:04;;;;;;;6.18;3.40;;;22.00;50.10;;;;;;20800276;28;80148;-71
2021/09/26 20:02:09;;;;;;;7.05;2.33;;;21.70;50.60;;;;;;20805861;28;80749;-75
2021/09/26 20:12:13;;;;;;;6.40;2.60;;;21.50;50.20;;;;;;20812707;28;81774;-74
2021/09/26 20:22:14;;;;;;;7.20;3.88;;;21.40;50.30;;;;;;20812735;27;80119;-71
2021/09/26 20:32:16;;;;;;;10.23;4.15;;;21.20;51.30;;;;;;20800233;28;81156;-72
2021/09/26 20:42:19;;;;;;;8.75;4.38;;;21.20;52.10;;;;;;20727682;28;81827;-71
2021/09/26 20:52:21;;;;;;;6.95;3.70;;;21.00;52.50;;;;;;20789761;28;80698;-75
2021/09/26 21:02:24;;;;;;;21.08;4.63;;;20.90;52.60;;;;;;20813043;28;81525;-72
2021/09/26 21:12:27;;;;;;;8.20;4.27;;;20.70;53.00;;;;;;20811158;28;80778;-72
2021/09/26 21:22:28;;;;;;;7.18;4.15;;;20.60;53.10;;;;;;20810527;28;80718;-71
2021/09/26 21:32:30;;;;;;;6.57;3.93;;;20.50;53.40;;;;;;20811840;28;80436;-75
2021/09/26 21:42:36;;;;;;;11.15;4.97;;;20.40;53.70;;;;;;20797195;28;81060;-72
2021/09/26 21:52:41;;;;;;;7.28;3.47;;;20.20;53.70;;;;;;20810026;28;80737;-73
2021/09/26 22:02:43;;;;;;;6.68;3.97;;;20.10;54.30;;;;;;20772531;28;81981;-75
2021/09/26 22:12:45;;;;;;;5.33;3.03;;;20.00;54.40;;;;;;20721955;28;81997;-80
2021/09/26 22:22:48;;;;;;;9.13;3.45;;;19.90;55.30;;;;;;20721121;28;80550;-72
2021/09/26 22:32:52;;;;;;;8.02;3.70;;;19.90;55.60;;;;;;20721464;28;81551;-75
2021/09/26 22:42:57;;;;;;;8.25;3.40;;;19.70;56.00;;;;;;20754053;28;80670;-74
2021/09/26 22:52:59;;;;;;;5.85;3.10;;;19.60;56.70;;;;;;20720146;28;80570;-73
2021/09/26 23:03:11;;;;;;;5.65;2.40;;;19.50;56.80;;;;;;20720476;28;81961;-73
2021/09/26 23:13:16;;;;;;;6.63;2.80;;;19.40;56.80;;;;;;20719376;28;80065;-74
2021/09/26 23:23:22;;;;;;;6.63;2.58;;;19.40;56.80;;;;;;20718306;28;79963;-75
2021/09/26 23:33:26;;;;;;;6.38;2.78;;;19.30;57.30;;;;;;20718064;28;80821;-77
2021/09/26 23:43:38;;;;;;;8.25;2.42;;;19.20;57.60;;;;;;20717722;28;80701;-72
2021/09/26 23:53:41;;;;;;;6.03;3.33;;;19.00;57.90;;;;;;20717152;28;79894;-76
